Terminal Aerodrome Forecast
Issued by NWS Charleston, WV

Home | Current Version | Previous Version | Text Only | Print | Product List | Glossary On
Versions: 1 2 3 4 5 6 7 8 9 10 11 12 13 14 15 16 17 18 19 20 21 22 23 24 25 26 27
160
FTUS41 KRLX 280539
TAFPKB
TAF
KPKB 280539Z 2806/2906 17003KT 5SM SHRA BR BKN080
     FM280800 17004KT 3SM BR VCSH OVC015
     FM281100 VRB03KT 2SM SHRA BR OVC009
     FM281500 25005KT P6SM VCSH OVC015
     FM282000 33006KT P6SM BKN025=

USA.gov is the U.S. government's official web portal to all federal, state and local government web resources and services.